Time;durP1;ratioP1;P1;durP2;ratioP2;P2;SDS_P1;SDS_P2;PMS_P1;PMS_P2;Temp;Humidity;BMP_temperature;BMP_pressure;BME280_temperature;BME280_humidity;BME280_pressure;Samples;Min_cycle;Max_cycle;Signal;HPM_P1;HPM_P2
2020/12/06 09:38:09;;;;;;;;;;;;;;;;;;5088703;27;20026;-44
2020/12/06 09:40:35;;;;;;;;;;;;;;;;;;5086978;28;20004;-45
2020/12/06 09:43:00;;;;;;;;;;;;;;;;;;5094718;28;20518;-44
2020/12/06 09:49:24;;;;;;;;;;;;;;;;;;5111433;27;20432;-32
2020/12/06 09:51:50;;;;;;;;;;;;;;;;;;5108121;28;19966;-34
2020/12/06 09:55:09;;;;;;;;;;;;;;;;;;5104908;27;19978;-35
2020/12/06 09:57:35;;;;;;;;;;;;;;;;;;5104410;28;19954;-34
2020/12/06 10:18:05;;;;;;;;;;;;;;;;;;4858249;27;86735;-40
2020/12/06 10:20:30;;;;;;;;;;;;;;;;;;4962457;28;20381;-40
2020/12/06 10:22:55;;;;;;;;;;;;;;;;;;4942980;28;29171;-42
2020/12/06 10:25:22;;;;;;;;;;;;;;;;;;5043053;28;19917;-37
2020/12/06 10:27:47;;;;;;;;;;;;;;;;;;5025961;28;75049;-38
2020/12/06 10:30:12;;;;;;;;;;;;;;;;;;5043041;28;19960;-35
2020/12/06 10:32:37;;;;;;;;;;;;;;;;;;5043605;28;20007;-39
2020/12/06 10:35:02;;;;;;;;;;;;;;;;;;5044412;28;20321;-36
2020/12/06 10:37:29;;;;;;;;;;;;;;;;;;5043622;28;19924;-57
2020/12/06 10:39:54;;;;;;;;;;;;;;;;;;5042695;28;19944;-56
2020/12/06 10:42:19;;;;;;;;;;;;;;;;;;5043694;28;19967;-38
2020/12/06 10:44:44;;;;;;;;;;;;;;;;;;5043609;28;19928;-43
2020/12/06 10:47:09;;;;;;;;;;;;;;;;;;5041138;28;19928;-34
2020/12/06 10:49:40;;;;;;;;;;;;;;;;;;5043256;28;19975;-44
2020/12/06 10:52:06;;;;;;;;;;;;;;;;;;5058396;28;19966;-46
2020/12/06 11:02:28;;;;;;;26.20;7.80;;;;;;;;;;4908932;27;20383;-60
2020/12/06 11:04:53;;;;;;;22.85;8.52;;;;;;;;;;4974952;28;20052;-45
2020/12/06 11:07:19;;;;;;;15.10;7.75;;;;;;;;;;5012477;28;20022;-44
2020/12/06 11:09:44;;;;;;;18.13;7.70;;;;;;;;;;5004708;28;20034;-41
2020/12/06 11:12:09;;;;;;;20.65;8.13;;;;;;;;;;4889316;28;68871;-38
2020/12/06 11:14:35;;;;;;;22.45;7.63;;;;;;;;;;4955964;28;20049;-44
2020/12/06 11:17:00;;;;;;;15.50;7.78;;;;;;;;;;4960851;28;20042;-36
2020/12/06 11:19:26;;;;;;;24.08;7.45;;;;;;;;;;4890568;28;20041;-42
2020/12/06 11:21:52;;;;;;;17.25;7.63;;;;;;;;;;4835958;28;65707;-57
2020/12/06 11:24:18;;;;;;;16.13;7.50;;;;;;;;;;4963034;28;20496;-34
2020/12/06 11:27:22;;;;;;;15.93;7.30;;;;;;;;;;5126451;27;20550;-34
2020/12/06 11:29:47;;;;;;;15.02;7.53;;;;;;;;;;5115747;27;20031;-37
2020/12/06 11:32:52;;;;;;;21.20;7.60;;;;;;;;;;5091635;27;20629;-39
2020/12/06 11:35:17;;;;;;;20.83;7.97;;;;;;;;;;5089608;28;20387;-39
2020/12/06 11:37:44;;;;;;;19.02;7.13;;;;;;;;;;5002599;28;20059;-44
2020/12/06 11:40:09;;;;;;;14.10;7.35;;;;;;;;;;5051097;28;20567;-51
2020/12/06 11:42:35;;;;;;;13.00;7.43;;;;;;;;;;5022137;28;20052;-39
2020/12/06 11:45:00;;;;;;;11.85;7.03;;;;;;;;;;5069237;28;20402;-58
2020/12/06 11:47:26;;;;;;;12.43;6.78;;;;;;;;;;5070029;28;20745;-39
2020/12/06 11:49:52;;;;;;;12.98;7.10;;;;;;;;;;5071235;28;20101;-40
2020/12/06 11:52:17;;;;;;;13.50;7.22;;;;;;;;;;5072019;28;20452;-38
2020/12/06 11:54:44;;;;;;;14.10;6.28;;;;;;;;;;5071235;28;20051;-39
2020/12/06 11:57:13;;;;;;;18.20;7.38;;;;;;;;;;5070686;28;20033;-39
2020/12/06 11:59:38;;;;;;;16.10;7.03;;;;;;;;;;5071276;28;20033;-58
2020/12/06 12:02:05;;;;;;;11.25;6.90;;;;;;;;;;5070852;28;20047;-40
2020/12/06 12:04:30;;;;;;;17.00;7.28;;;;;;;;;;5071282;28;20397;-45
2020/12/06 12:06:57;;;;;;;21.20;9.02;;;;;;;;;;5071955;28;20033;-61
2020/12/06 12:09:22;;;;;;;14.20;6.90;;;;;;;;;;5071679;28;20039;-57
2020/12/06 12:11:48;;;;;;;13.65;6.63;;;;;;;;;;5070216;28;20040;-57
2020/12/06 12:14:13;;;;;;;18.13;6.78;;;;;;;;;;5071653;28;20052;-57
2020/12/06 12:16:41;;;;;;;13.85;6.82;;;;;;;;;;5069755;28;20081;-56
2020/12/06 12:19:06;;;;;;;;;;;;;;;;;;5071309;28;20060;-56
2020/12/06 12:21:32;;;;;;;;;;;;;;;-148.34;100.00;59846.97;5072145;28;20380;-48
2020/12/06 12:23:58;;;;;;;;;;;;;;;-148.34;100.00;59846.97;5066050;28;19939;-56
2020/12/06 12:26:23;;;;;;;;;;;;;;;-148.34;100.00;59846.97;5067832;28;19924;-58
2020/12/06 12:28:49;;;;;;;;;;;;;;;-148.34;100.00;59846.97;5071841;28;19920;-64
2020/12/06 12:31:14;;;;;;;;;;;;;;;-148.34;100.00;59846.97;5072986;28;19921;-58
2020/12/06 12:33:40;;;;;;;;;;;;;;;-148.34;100.00;59846.97;5073243;28;20454;-59
2020/12/06 12:36:05;;;;;;;;;;;;;;;-148.34;100.00;59846.97;5074140;28;19927;-39
2020/12/06 12:38:32;;;;;;;;;;;;;;;-148.34;100.00;59846.97;5072841;28;20361;-59
2020/12/06 12:40:57;;;;;;;;;;;;;;;-148.34;100.00;59846.97;5072637;28;19924;-58
2020/12/06 12:43:24;;;;;;;;;;;;;;;-148.34;100.00;59846.97;5063595;28;19927;-40
2020/12/06 12:45:49;;;;;;;;;;;;;;;-148.34;100.00;59846.97;5059784;28;20007;-58
2020/12/06 12:48:15;;;;;;;;;;;;;;;-148.34;100.00;59846.97;5059592;28;20354;-39
2020/12/06 12:50:40;;;;;;;;;;;;;;;-148.34;100.00;59846.97;5057012;28;19920;-58
2020/12/06 12:53:05;;;;;;;;;;;;;;;-148.34;100.00;59846.97;5056127;28;19981;-41
2020/12/06 12:55:31;;;;;;;;;;;;;;;-148.34;100.00;59846.97;5057932;28;20027;-58
2020/12/06 12:57:56;;;;;;;;;;;;;;;-148.34;100.00;59846.97;5057004;28;20279;-41
2020/12/06 13:00:22;;;;;;;;;;;;;;;-148.34;100.00;59846.97;5057666;28;19963;-41
2020/12/06 13:02:47;;;;;;;;;;;;;;;-148.34;100.00;59846.97;5057363;28;20239;-57
2020/12/06 13:05:13;;;;;;;;;;;;;;;-148.34;100.00;59846.97;5056899;28;19967;-58
2020/12/06 13:07:41;;;;;;;;;;;;;;;-148.34;100.00;59846.97;5055274;28;19925;-59
2020/12/06 13:10:06;;;;;;;;;;;;;;;-148.34;100.00;59846.97;5045437;28;19976;-58
2020/12/06 13:12:32;;;;;;;;;;;;;;;-148.34;100.00;59846.97;5052059;28;20410;-57
2020/12/06 13:15:00;;;;;;;;;;;;;;;-148.34;100.00;59846.97;5048895;28;19924;-58
2020/12/06 13:17:27;;;;;;;;;;;;;;;-148.34;100.00;59846.97;5055720;28;19931;-59
2020/12/06 13:19:52;;;;;;;;;;;;;;;-148.34;100.00;59846.97;5056395;28;19975;-58
2020/12/06 13:22:19;;;;;;;;;;;;;;;-148.34;100.00;59846.97;5057810;28;19968;-58
2020/12/06 13:24:45;;;;;;;;;;;;;;;-148.34;100.00;59846.97;5058354;28;19928;-50
2020/12/06 13:27:10;;;;;;;;;;;;;;;-148.34;100.00;59846.97;5058173;28;20010;-61
2020/12/06 13:29:35;;;;;;;;;;;;;;;-148.34;100.00;59846.97;5058343;28;20023;-58
2020/12/06 13:32:01;;;;;;;;;;;;;;;-148.34;100.00;59846.97;5054330;28;19934;-66
2020/12/06 13:34:27;;;;;;;;;;;;;;;-148.34;100.00;59846.97;5058682;28;19946;-64
2020/12/06 13:36:52;;;;;;;;;;;;;;;-148.34;100.00;59846.97;5058623;28;19924;-69
2020/12/06 13:39:18;;;;;;;;;;;;;;;-148.34;100.00;59846.97;5055692;28;19920;-60
2020/12/06 13:41:43;;;;;;;;;;;;;;;-148.34;100.00;59846.97;5055717;28;20412;-57
2020/12/06 13:44:09;;;;;;;;;;;;;;;-148.34;100.00;59846.97;5056546;28;20276;-61
2020/12/06 13:46:36;;;;;;;;;;;;;;;-148.34;100.00;59846.97;5057602;28;19928;-61
2020/12/06 13:49:01;;;;;;;;;;;;;;;-148.34;100.00;59846.97;5059294;28;19967;-62
2020/12/06 13:51:27;;;;;;;;;;;;;;;-148.34;100.00;59846.97;5058453;28;19967;-66
2020/12/06 13:53:53;;;;;;;;;;;;;;;-148.34;100.00;59846.97;5045339;28;19920;-63
2020/12/06 13:56:18;;;;;;;;;;;;;;;-148.34;100.00;59846.97;5057172;28;19920;-60
2020/12/06 13:58:44;;;;;;;;;;;;;;;-148.34;100.00;59846.97;5056284;28;19930;-63
2020/12/06 14:01:09;;;;;;;;;;;;;;;-148.34;100.00;59846.97;5056921;28;19920;-61
2020/12/06 14:03:36;;;;;;;;;;;;;;;-148.34;100.00;59846.97;5054869;28;19940;-65
2020/12/06 14:06:02;;;;;;;;;;;;;;;-148.34;100.00;59846.97;5055879;28;19974;-45
2020/12/06 14:08:28;;;;;;;;;;;;;;;-148.34;100.00;59846.97;5055549;28;19927;-57
2020/12/06 14:10:53;;;;;;;;;;;;;;;-148.34;100.00;59846.97;5054755;28;19921;-66
2020/12/06 14:13:20;;;;;;;;;;;;;;;-148.34;100.00;59846.97;5053215;28;19920;-65
2020/12/06 14:15:45;;;;;;;;;;;;;;;-148.34;100.00;59846.97;5053727;28;19959;-66
2020/12/06 14:18:11;;;;;;;;;;;;;;;-148.34;100.00;59846.97;5052515;28;20779;-58
2020/12/06 14:20:36;;;;;;;;;;;;;;;-148.34;100.00;59846.97;5055089;28;19925;-61
2020/12/06 14:23:02;;;;;;;;;;;;;;;-148.34;100.00;59846.97;5056852;28;20026;-62
2020/12/06 14:25:28;;;;;;;;;;;;;;;-148.34;100.00;59846.97;5056909;28;19952;-61
2020/12/06 14:27:55;;;;;;;;;;;;;;;-148.34;100.00;59846.97;5057152;28;19963;-61
2020/12/06 14:30:21;;;;;;;;;;;;;;;-148.34;100.00;59846.97;5054903;28;19924;-61
2020/12/06 14:32:47;;;;;;;;;;;;;;;-148.34;100.00;59846.97;5055805;28;19924;-63
2020/12/06 14:35:12;;;;;;;;;;;;;;;-148.34;100.00;59846.97;5056975;28;19928;-40
2020/12/06 14:37:37;;;;;;;;;;;;;;;-148.34;100.00;59846.97;5054500;28;19924;-58
2020/12/06 14:40:03;;;;;;;;;;;;;;;-148.34;100.00;59846.97;5056008;28;20374;-62
2020/12/06 14:42:29;;;;;;;;;;;;;;;-148.34;100.00;59846.97;5055814;28;20461;-58
2020/12/06 14:44:54;;;;;;;;;;;;;;;-148.34;100.00;59846.97;5054239;28;19963;-41
2020/12/06 14:47:20;;;;;;;;;;;;;;;-148.34;100.00;59846.97;5053998;28;19920;-58
2020/12/06 14:49:46;;;;;;;;;;;;;;;-148.34;100.00;59846.97;5056564;28;19943;-57
2020/12/06 14:52:11;;;;;;;;;;;;;;;-148.34;100.00;59846.97;5056464;28;19920;-58
2020/12/06 14:54:37;;;;;;;;;;;;;;;-148.34;100.00;59846.97;5057023;28;19921;-57
2020/12/06 14:57:03;;;;;;;;;;;;;;;-148.34;100.00;59846.97;5056881;28;19924;-41
2020/12/06 14:59:30;;;;;;;;;;;;;;;-148.34;100.00;59846.97;5055652;28;19966;-57
2020/12/06 15:01:55;;;;;;;;;;;;;;;-148.34;100.00;59846.97;5053943;28;19931;-57
2020/12/06 15:04:21;;;;;;;;;;;;;;;-148.34;100.00;59846.97;5055312;28;19924;-54
2020/12/06 15:06:46;;;;;;;;;;;;;;;-148.34;100.00;59846.97;5053359;28;19920;-50
2020/12/06 15:09:15;;;;;;;;;;;;;;;-148.34;100.00;59846.97;5054907;28;19982;-44
2020/12/06 15:11:40;;;;;;;;;;;;;;;-148.34;100.00;59846.97;5053690;28;19920;-60
2020/12/06 15:14:06;;;;;;;;;;;;;;;-148.34;100.00;59846.97;5053830;28;19920;-66
2020/12/06 15:16:31;;;;;;;;;;;;;;;-148.34;100.00;59846.97;5070570;28;19921;-67
2020/12/06 15:18:57;;;;;;;;;;;;;;;-148.34;100.00;59846.97;5053285;28;20438;-54
2020/12/06 15:21:23;;;;;;;;;;;;;;;-148.34;100.00;59846.97;5053512;28;19920;-58
2020/12/06 15:23:50;;;;;;;;;;;;;;;-148.34;100.00;59846.97;5053664;28;19963;-48
2020/12/06 15:26:15;;;;;;;;;;;;;;;-148.34;100.00;59846.97;5053467;28;19927;-62
2020/12/06 15:28:41;;;;;;;;;;;;;;;-148.34;100.00;59846.97;5051884;28;19921;-63
2020/12/06 15:31:07;;;;;;;;;;;;;;;-148.34;100.00;59846.97;5055523;28;20373;-60
2020/12/06 15:33:32;;;;;;;;;;;;;;;-148.34;100.00;59846.97;5055122;28;19930;-51
2020/12/06 15:36:00;;;;;;;;;;;;;;;-148.34;100.00;59846.97;5051119;28;19970;-52
2020/12/06 15:38:26;;;;;;;;;;;;;;;-148.34;100.00;59846.97;5052689;28;19928;-56
2020/12/06 15:40:52;;;;;;;;;;;;;;;-148.34;100.00;59846.97;5052195;28;19972;-48
2020/12/06 15:43:17;;;;;;;;;;;;;;;-148.34;100.00;59846.97;5050473;28;19920;-50
2020/12/06 15:45:43;;;;;;;;;;;;;;;-148.34;100.00;59846.97;5053314;28;19924;-50
2020/12/06 15:48:08;;;;;;;;;;;;;;;-148.34;100.00;59846.97;5052395;28;20012;-48
2020/12/06 15:50:33;;;;;;;;;;;;;;;-148.34;100.00;59846.97;5053512;28;19971;-48
2020/12/06 15:53:00;;;;;;;;;;;;;;;-148.34;100.00;59846.97;5053105;28;19920;-55
2020/12/06 15:55:27;;;;;;;;;;;;;;;-148.34;100.00;59846.97;5054121;28;19928;-49
2020/12/06 15:57:53;;;;;;;;;;;;;;;-148.34;100.00;59846.97;5055584;28;20341;-60
2020/12/06 16:00:18;;;;;;;;;;;;;;;-148.34;100.00;59846.97;5058274;28;19921;-75
2020/12/06 16:02:44;;;;;;;;;;;;;;;-148.34;100.00;59846.97;5057449;28;20031;-42
2020/12/06 16:05:10;;;;;;;;;;;;;;;-148.34;100.00;59846.97;5052411;28;19927;-58
2020/12/06 16:07:35;;;;;;;;;;;;;;;-148.34;100.00;59846.97;5056636;28;20670;-41
2020/12/06 16:10:01;;;;;;;;;;;;;;;-148.34;100.00;59846.97;5056326;28;19938;-49
2020/12/06 16:12:26;;;;;;;;;;;;;;;-148.34;100.00;59846.97;5055590;28;19925;-36
2020/12/06 16:14:53;;;;;;;;;;;;;;;-148.34;100.00;59846.97;5055937;28;20851;-37
2020/12/06 16:17:19;;;;;;;;;;;;;;;-148.34;100.00;59846.97;5051190;28;19947;-35
2020/12/06 16:19:48;;;;;;;;;;;;;;;-148.34;100.00;59846.97;5056165;28;20378;-39
2020/12/06 16:22:15;;;;;;;;;;;;;;;-148.34;100.00;59846.97;5057304;28;19951;-34
2020/12/06 16:27:21;;;;;;;;;;;;;;;;;;4993656;27;68105;-58
2020/12/06 16:29:47;;;;;;;;;;;;;;;;;;5020116;28;19921;-54
2020/12/06 16:32:13;;;;;;;;;;;;;;;;;;5027630;28;19928;-32
2020/12/06 16:34:40;;;;;;;13.30;5.80;;;;;;;;;;4895270;28;24420;-43
2020/12/06 16:49:16;;;;;;;13.45;5.43;;;;;;;;;;5080308;27;20735;-36
2020/12/06 16:51:41;;;;;;;16.25;5.20;;;;;;;;;;4949190;28;73019;-42
2020/12/06 16:54:07;;;;;;;11.73;5.20;;;;;;;;;;4975611;28;20066;-35
2020/12/06 16:56:32;;;;;;;12.90;4.90;;;;;;;;;;4923980;28;20045;-35
